Terminal Aerodrome Forecast
Issued by NWS St Louis, MO

Home | Current Version | Previous Version | Text Only | Print | Product List | Glossary On
Versions: 1 2 3 4 5 6 7 8 9 10 11 12 13 14 15 16 17 18 19 20 21 22 23
351
FTUS43 KLSX 280013 AAA
TAFSTL
TAF AMD
KSTL 280013Z 2800/2906 16008KT P6SM VCTS SCT040CB OVC150
     FM280200 00000KT P6SM SCT200
     FM281600 VRB03KT P6SM BKN050
     FM290200 29005KT P6SM SCT100=

USA.gov is the U.S. government's official web portal to all federal, state and local government web resources and services.